createdAt,value
2019-01-11T00:01:54.874Z,-9.40
2019-01-11T00:04:24.217Z,-9.30
2019-01-11T00:06:53.848Z,-9.40
2019-01-11T00:09:23.234Z,-9.40
2019-01-11T00:11:52.617Z,-9.20
2019-01-11T00:14:22.090Z,-9.10
2019-01-11T00:16:51.426Z,-9.20
2019-01-11T00:19:20.838Z,-9.10
2019-01-11T00:21:50.283Z,-9.10
2019-01-11T00:24:56.580Z,-9.10
2019-01-11T00:27:25.993Z,-9.10
2019-01-11T00:29:55.406Z,-9.00
2019-01-11T00:32:24.850Z,-9.00
2019-01-11T00:34:54.204Z,-8.90
2019-01-11T00:37:23.806Z,-9.00
2019-01-11T00:39:53.253Z,-8.90
2019-01-11T00:42:22.662Z,-8.80
2019-01-11T00:44:52.022Z,-8.90
2019-01-11T00:47:21.613Z,-9.00
2019-01-11T00:49:51.020Z,-9.00
2019-01-11T00:52:20.425Z,-9.00
2019-01-11T00:54:49.889Z,-9.20
2019-01-11T00:57:19.227Z,-9.10
2019-01-11T00:59:49.026Z,-9.20
2019-01-11T01:02:18.460Z,-9.20
2019-01-11T01:04:48.016Z,-9.30
2019-01-11T01:07:20.178Z,-9.40
2019-01-11T01:09:49.669Z,-9.40
2019-01-11T01:12:19.187Z,-9.50
2019-01-11T01:14:48.562Z,-9.60
2019-01-11T01:17:18.373Z,-9.50
2019-01-11T01:19:48.593Z,-9.50
2019-01-11T01:22:18.365Z,-9.50
2019-01-11T01:24:47.731Z,-9.50
2019-01-11T01:27:17.362Z,-9.50
2019-01-11T01:29:46.768Z,-9.50
2019-01-11T01:32:16.390Z,-9.60
2019-01-11T01:34:45.825Z,-9.60
2019-01-11T01:37:15.254Z,-9.50
2019-01-11T01:39:44.621Z,-9.50
2019-01-11T01:42:14.082Z,-9.50
2019-01-11T01:44:43.491Z,-9.60
2019-01-11T01:47:12.959Z,-9.60
2019-01-11T01:49:42.295Z,-9.60
2019-01-11T01:52:11.895Z,-9.60
2019-01-11T01:54:41.297Z,-9.60
2019-01-11T01:57:10.710Z,-9.50
2019-01-11T01:59:40.168Z,-9.50
2019-01-11T02:02:09.610Z,-9.50
2019-01-11T02:04:39.090Z,-9.50
2019-01-11T02:07:08.528Z,-9.60
2019-01-11T02:09:37.937Z,-9.50
2019-01-11T02:12:07.373Z,-9.40
2019-01-11T02:14:36.771Z,-9.30
2019-01-11T02:17:06.134Z,-9.30
2019-01-11T02:19:35.603Z,-9.50
2019-01-11T02:22:04.957Z,-9.40
2019-01-11T02:24:34.329Z,-9.50
2019-01-11T02:27:03.749Z,-9.50
2019-01-11T02:29:33.182Z,-9.50
2019-01-11T02:32:02.590Z,-9.50
2019-01-11T02:34:31.993Z,-9.40
2019-01-11T02:37:01.419Z,-9.40
2019-01-11T02:39:30.743Z,-9.40
2019-01-11T02:42:00.226Z,-9.50
2019-01-11T02:44:29.647Z,-9.50
2019-01-11T02:46:59.063Z,-9.50
2019-01-11T02:49:28.526Z,-9.40
2019-01-11T02:51:57.919Z,-9.50
2019-01-11T02:54:27.308Z,-9.50
2019-01-11T02:56:56.730Z,-9.40
2019-01-11T02:59:26.075Z,-9.40
2019-01-11T03:01:55.512Z,-9.40
2019-01-11T03:04:24.932Z,-9.40
2019-01-11T03:06:54.459Z,-9.40
2019-01-11T03:09:23.853Z,-9.30
2019-01-11T03:11:53.285Z,-9.40
2019-01-11T03:14:22.717Z,-9.40
2019-01-11T03:16:52.110Z,-9.40
2019-01-11T03:19:22.032Z,-9.50
2019-01-11T03:21:51.485Z,-9.40
2019-01-11T03:24:20.962Z,-9.40
2019-01-11T03:26:50.416Z,-9.60
2019-01-11T03:29:20.050Z,-9.60
2019-01-11T03:31:49.611Z,-9.60
2019-01-11T03:34:19.028Z,-9.60
2019-01-11T03:36:48.423Z,-9.60
2019-01-11T03:39:17.876Z,-9.60
2019-01-11T03:41:52.706Z,-9.50
2019-01-11T03:44:22.423Z,-9.50
2019-01-11T03:46:51.990Z,-9.50
2019-01-11T03:49:21.448Z,-9.50
2019-01-11T03:51:50.764Z,-9.50
2019-01-11T03:54:20.366Z,-9.40
2019-01-11T03:56:49.782Z,-9.40
2019-01-11T03:59:19.169Z,-9.50
2019-01-11T04:01:48.650Z,-9.50
2019-01-11T04:04:18.185Z,-9.40
2019-01-11T04:06:47.584Z,-9.40
2019-01-11T04:09:17.068Z,-9.40
2019-01-11T04:11:46.391Z,-9.40
2019-01-11T04:14:15.815Z,-9.40
2019-01-11T04:16:45.214Z,-9.40
2019-01-11T04:19:16.151Z,-9.40
2019-01-11T04:22:16.666Z,-9.40
2019-01-11T04:25:11.056Z,-9.30
2019-01-11T04:27:40.574Z,-9.40
2019-01-11T04:30:14.450Z,-9.40
2019-01-11T04:32:43.968Z,-9.50
2019-01-11T04:35:13.861Z,-9.50
2019-01-11T04:37:43.299Z,-9.40
2019-01-11T04:40:14.706Z,-9.40
2019-01-11T04:42:44.086Z,-9.50
2019-01-11T04:45:13.781Z,-9.50
2019-01-11T04:47:43.215Z,-9.50
2019-01-11T04:50:18.018Z,-9.50
2019-01-11T04:52:47.646Z,-9.60
2019-01-11T04:55:17.375Z,-9.60
2019-01-11T04:57:46.794Z,-9.50
2019-01-11T05:00:21.762Z,-9.50
2019-01-11T05:02:51.126Z,-9.60
2019-01-11T05:05:20.713Z,-9.50
2019-01-11T05:07:50.241Z,-9.50
2019-01-11T05:10:20.742Z,-9.60
2019-01-11T05:12:50.118Z,-9.60
2019-01-11T05:15:19.465Z,-9.50
2019-01-11T05:17:48.869Z,-9.40
2019-01-11T05:20:18.323Z,-9.40
2019-01-11T05:22:48.895Z,-9.30
2019-01-11T05:25:18.338Z,-9.30
2019-01-11T05:27:47.762Z,-9.30
2019-01-11T05:30:19.300Z,-9.30
2019-01-11T05:32:49.031Z,-9.30
2019-01-11T05:35:18.530Z,-9.30
2019-01-11T05:37:47.981Z,-9.20
2019-01-11T05:40:19.290Z,-9.30
2019-01-11T05:42:48.666Z,-9.30
2019-01-11T05:45:18.910Z,-9.20
2019-01-11T05:47:48.751Z,-9.20
2019-01-11T05:50:23.899Z,-9.10
2019-01-11T05:52:51.346Z,-9.10
2019-01-11T05:55:45.322Z,-9.10
2019-01-11T05:58:34.024Z,-9.10
2019-01-11T06:01:03.430Z,-9.10
2019-01-11T06:03:32.836Z,-9.10
2019-01-11T06:06:02.371Z,-9.10
2019-01-11T06:08:32.919Z,-9.10
2019-01-11T06:11:02.321Z,-9.10
2019-01-11T06:13:31.727Z,-9.10
2019-01-11T06:16:01.145Z,-9.10
2019-01-11T06:18:30.637Z,-9.00
2019-01-11T06:21:00.033Z,-9.00
2019-01-11T06:23:29.486Z,-9.00
2019-01-11T06:25:58.825Z,-9.00
2019-01-11T06:28:30.580Z,-9.00
2019-01-11T06:30:59.989Z,-9.00
2019-01-11T06:33:29.447Z,-9.00
2019-01-11T06:35:58.808Z,-8.90
2019-01-11T06:38:28.302Z,-8.90
2019-01-11T06:40:57.943Z,-8.90
2019-01-11T06:43:27.366Z,-8.90
2019-01-11T06:45:56.698Z,-8.90
2019-01-11T06:48:51.034Z,-8.90
2019-01-11T06:51:20.344Z,-8.80
2019-01-11T06:53:49.873Z,-8.80
2019-01-11T06:56:19.202Z,-8.80
2019-01-11T06:58:48.655Z,-8.80
2019-01-11T07:01:18.108Z,-8.70
2019-01-11T07:03:47.607Z,-8.70
2019-01-11T07:06:17.074Z,-8.70
2019-01-11T07:08:46.479Z,-8.70
2019-01-11T07:11:16.107Z,-8.60
2019-01-11T07:13:45.486Z,-8.60
2019-01-11T07:16:14.997Z,-8.50
2019-01-11T07:18:44.349Z,-8.50
2019-01-11T07:21:13.746Z,-8.50
2019-01-11T07:23:43.203Z,-8.50
2019-01-11T07:26:12.499Z,-8.50
2019-01-11T07:28:41.952Z,-8.50
2019-01-11T07:31:13.713Z,-8.50
2019-01-11T07:33:43.314Z,-8.50
2019-01-11T07:36:40.654Z,-8.40
2019-01-11T07:39:42.394Z,-8.40
2019-01-11T07:42:11.766Z,-8.30
2019-01-11T07:44:41.139Z,-8.30
2019-01-11T07:47:10.614Z,-8.30
2019-01-11T07:49:40.038Z,-8.30
2019-01-11T07:52:09.479Z,-8.30
2019-01-11T07:54:43.046Z,-8.20
2019-01-11T07:57:14.167Z,-8.20
2019-01-11T07:59:43.619Z,-8.10
2019-01-11T08:02:12.987Z,-8.10
2019-01-11T08:04:42.451Z,-8.10
2019-01-11T08:07:11.733Z,-8.10
2019-01-11T08:09:41.239Z,-8.00
2019-01-11T08:12:10.686Z,-8.00
2019-01-11T08:14:40.142Z,-8.00
2019-01-11T08:17:09.514Z,-8.00
2019-01-11T08:19:39.085Z,-7.90
2019-01-11T08:22:11.033Z,-7.90
2019-01-11T08:24:42.094Z,-7.90
2019-01-11T08:27:11.785Z,-7.80
2019-01-11T08:29:41.286Z,-7.80
2019-01-11T08:32:10.773Z,-7.80
2019-01-11T08:34:40.126Z,-7.70
2019-01-11T08:37:10.058Z,-7.60
2019-01-11T08:39:39.410Z,-7.70
2019-01-11T08:42:08.898Z,-7.60
2019-01-11T08:44:38.254Z,-7.70
2019-01-11T08:47:07.791Z,-7.60
2019-01-11T08:49:37.288Z,-7.60
2019-01-11T08:52:06.804Z,-7.50
2019-01-11T08:54:36.142Z,-7.60
2019-01-11T08:57:05.596Z,-7.50
2019-01-11T08:59:35.001Z,-7.50
2019-01-11T09:02:05.424Z,-7.50
2019-01-11T09:04:34.870Z,-7.40
2019-01-11T09:07:04.304Z,-7.40
2019-01-11T09:09:33.680Z,-7.40
2019-01-11T09:12:03.212Z,-7.50
2019-01-11T09:15:00.658Z,-7.40
2019-01-11T09:17:30.598Z,-7.40
2019-01-11T09:20:00.035Z,-7.50
2019-01-11T09:22:29.414Z,-7.40
2019-01-11T09:24:58.823Z,-7.40
2019-01-11T09:27:28.162Z,-7.30
2019-01-11T09:29:57.767Z,-7.20
2019-01-11T09:32:27.198Z,-7.30
2019-01-11T09:34:56.739Z,-7.30
2019-01-11T09:37:26.130Z,-7.50
2019-01-11T09:39:55.776Z,-7.50
2019-01-11T09:42:25.196Z,-7.40
2019-01-11T09:44:55.153Z,-7.40
2019-01-11T09:47:24.668Z,-7.40
2019-01-11T09:49:54.038Z,-7.40
2019-01-11T09:52:23.514Z,-7.40
2019-01-11T09:54:52.882Z,-7.40
2019-01-11T09:57:22.312Z,-7.50
2019-01-11T09:59:51.782Z,-7.50
2019-01-11T10:02:35.161Z,-7.50
2019-01-11T10:05:05.941Z,-7.40
2019-01-11T10:07:35.298Z,-7.30
2019-01-11T10:10:05.704Z,-7.50
2019-01-11T10:12:35.166Z,-7.40
2019-01-11T10:15:05.736Z,-7.30
2019-01-11T10:17:35.225Z,-7.30
2019-01-11T10:20:05.569Z,-7.20
2019-01-11T10:22:35.005Z,-7.20
2019-01-11T10:25:04.859Z,-7.20
2019-01-11T10:27:34.227Z,-7.30
2019-01-11T10:30:04.163Z,-7.20
2019-01-11T10:32:33.574Z,-7.20
2019-01-11T10:35:02.921Z,-7.10
2019-01-11T10:37:33.235Z,-7.10
2019-01-11T10:40:02.974Z,-7.10
2019-01-11T10:42:32.383Z,-7.00
2019-01-11T10:45:01.930Z,-7.00
2019-01-11T10:47:31.358Z,-7.10
2019-01-11T10:50:00.818Z,-7.00
2019-01-11T10:52:30.148Z,-7.00
2019-01-11T10:54:59.750Z,-7.10
2019-01-11T10:57:29.453Z,-7.00
2019-01-11T10:59:59.071Z,-7.00
2019-01-11T11:02:28.461Z,-6.90
2019-01-11T11:04:57.948Z,-6.90
2019-01-11T11:07:27.375Z,-6.90
2019-01-11T11:09:56.974Z,-7.00
2019-01-11T11:12:26.461Z,-6.80
2019-01-11T11:14:55.931Z,-6.70
2019-01-11T11:17:25.311Z,-6.70
2019-01-11T11:19:54.805Z,-6.70
2019-01-11T11:22:24.217Z,-6.50
2019-01-11T11:24:53.667Z,-6.50
2019-01-11T11:27:23.018Z,-6.40
2019-01-11T11:29:52.462Z,-6.30
2019-01-11T11:32:27.944Z,-6.30
2019-01-11T11:34:57.548Z,-6.30
2019-01-11T11:37:28.519Z,-6.20
2019-01-11T11:39:57.994Z,-6.30
2019-01-11T11:42:27.458Z,-6.30
2019-01-11T11:44:56.797Z,-6.30
2019-01-11T11:47:26.265Z,-6.10
2019-01-11T11:49:55.633Z,-6.00
2019-01-11T11:52:25.068Z,-6.00
2019-01-11T11:54:54.652Z,-5.90
2019-01-11T11:57:24.133Z,-6.00
2019-01-11T11:59:53.578Z,-6.00
2019-01-11T12:02:22.929Z,-6.00
2019-01-11T12:04:52.509Z,-6.00
2019-01-11T12:07:24.823Z,-5.90
2019-01-11T12:09:54.213Z,-5.90
2019-01-11T12:12:23.645Z,-5.90
2019-01-11T12:14:53.086Z,-5.80
2019-01-11T12:17:22.478Z,-5.70
2019-01-11T12:19:51.803Z,-5.50
2019-01-11T12:22:21.409Z,-5.50
2019-01-11T12:24:50.810Z,-5.60
2019-01-11T12:27:20.213Z,-5.60
2019-01-11T12:29:49.644Z,-5.50
2019-01-11T12:32:19.690Z,-5.50
2019-01-11T12:34:49.337Z,-5.50
2019-01-11T12:37:18.744Z,-5.50
2019-01-11T12:39:48.162Z,-5.50
2019-01-11T12:42:17.551Z,-5.40
2019-01-11T12:44:47.634Z,-5.50
2019-01-11T12:47:17.050Z,-5.50
2019-01-11T12:49:46.486Z,-5.40
2019-01-11T12:52:16.970Z,-5.30
2019-01-11T12:54:46.371Z,-5.30
2019-01-11T12:57:16.880Z,-5.20
2019-01-11T12:59:46.241Z,-5.10
2019-01-11T13:02:15.694Z,-5.00
2019-01-11T13:04:45.436Z,-4.90
2019-01-11T13:07:14.885Z,-4.80
2019-01-11T13:09:44.260Z,-4.70
2019-01-11T13:12:13.894Z,-4.70
2019-01-11T13:14:43.401Z,-4.70
2019-01-11T13:17:12.878Z,-4.70
2019-01-11T13:19:42.311Z,-4.70
2019-01-11T13:22:11.739Z,-4.70
2019-01-11T13:24:41.367Z,-4.70
2019-01-11T13:27:10.811Z,-4.70
2019-01-11T13:29:40.249Z,-4.60
2019-01-11T13:32:09.670Z,-4.50
2019-01-11T13:34:39.152Z,-4.40
2019-01-11T13:37:08.605Z,-4.30
2019-01-11T13:39:38.060Z,-4.30
2019-01-11T13:42:07.578Z,-4.30
2019-01-11T13:44:37.030Z,-4.20
2019-01-11T13:47:06.715Z,-4.10
2019-01-11T13:49:36.424Z,-4.30
2019-01-11T13:52:07.406Z,-4.50
2019-01-11T13:54:36.957Z,-4.50
2019-01-11T13:57:06.391Z,-4.50
2019-01-11T13:59:41.394Z,-4.60
2019-01-11T14:02:07.061Z,-4.70
2019-01-11T14:04:36.513Z,-4.80
2019-01-11T14:07:06.196Z,-4.80
2019-01-11T14:09:35.677Z,-4.90
2019-01-11T14:12:05.154Z,-4.90
2019-01-11T14:14:34.553Z,-4.90
2019-01-11T14:17:04.344Z,-4.90
2019-01-11T14:19:33.767Z,-4.90
2019-01-11T14:22:03.214Z,-4.90
2019-01-11T14:24:32.647Z,-4.90
2019-01-11T14:27:02.073Z,-5.00
2019-01-11T14:29:31.518Z,-4.90
2019-01-11T14:32:00.923Z,-4.90
2019-01-11T14:34:30.383Z,-4.90
2019-01-11T14:36:59.778Z,-4.90
2019-01-11T14:39:29.250Z,-4.90
2019-01-11T14:41:59.120Z,-4.90
2019-01-11T14:44:28.596Z,-4.90
2019-01-11T14:46:58.305Z,-4.90
2019-01-11T14:49:27.740Z,-4.80
2019-01-11T14:51:57.129Z,-4.80
2019-01-11T14:54:26.715Z,-4.80
2019-01-11T14:56:56.127Z,-4.80
2019-01-11T14:59:26.605Z,-4.70
2019-01-11T15:01:56.026Z,-4.70
2019-01-11T15:04:25.559Z,-4.70
2019-01-11T15:06:55.114Z,-4.70
2019-01-11T15:09:24.559Z,-4.60
2019-01-11T15:11:54.029Z,-4.60
2019-01-11T15:14:23.538Z,-4.60
2019-01-11T15:16:52.968Z,-4.60
2019-01-11T15:19:22.564Z,-4.50
2019-01-11T15:21:52.000Z,-4.50
2019-01-11T15:24:21.505Z,-4.50
2019-01-11T15:26:51.075Z,-4.40
2019-01-11T15:29:20.614Z,-4.40
2019-01-11T15:31:50.291Z,-4.40
2019-01-11T15:34:19.788Z,-4.30
2019-01-11T15:36:49.439Z,-4.30
2019-01-11T15:39:18.835Z,-4.30
2019-01-11T15:41:48.427Z,-4.20
2019-01-11T15:44:17.811Z,-4.20
2019-01-11T15:46:47.222Z,-4.10
2019-01-11T15:49:16.810Z,-4.10
2019-01-11T15:51:46.268Z,-4.00
2019-01-11T15:54:15.672Z,-4.00
2019-01-11T15:56:45.223Z,-4.00
2019-01-11T15:59:14.687Z,-3.90
2019-01-11T16:01:44.131Z,-3.90
2019-01-11T16:04:15.342Z,-3.80
2019-01-11T16:06:44.706Z,-3.80
2019-01-11T16:10:00.197Z,-3.80
2019-01-11T16:12:35.697Z,-3.70
2019-01-11T16:16:13.764Z,-3.60
2019-01-11T16:18:43.449Z,-3.60
2019-01-11T16:21:13.126Z,-3.50
2019-01-11T16:23:42.581Z,-3.40
2019-01-11T16:26:12.115Z,-3.40
2019-01-11T16:28:41.647Z,-3.40
2019-01-11T16:31:11.091Z,-3.40
2019-01-11T16:33:40.535Z,-3.30
2019-01-11T16:36:10.089Z,-3.30
2019-01-11T16:38:39.488Z,-3.20
2019-01-11T16:41:09.505Z,-3.20
2019-01-11T16:43:38.880Z,-3.20
2019-01-11T16:46:08.703Z,-3.20
2019-01-11T16:48:38.283Z,-3.10
2019-01-11T16:51:07.809Z,-3.10
2019-01-11T16:53:37.303Z,-3.10
2019-01-11T16:56:06.752Z,-3.10
2019-01-11T16:58:36.422Z,-3.10
2019-01-11T17:01:05.966Z,-3.10
2019-01-11T17:03:35.470Z,-3.10
2019-01-11T17:06:05.391Z,-3.10
2019-01-11T17:08:36.294Z,-3.10
2019-01-11T17:11:05.799Z,-3.20
2019-01-11T17:13:40.544Z,-3.20
2019-01-11T17:16:06.616Z,-3.20
2019-01-11T17:18:36.014Z,-3.30
2019-01-11T17:21:05.433Z,-3.30
2019-01-11T17:23:34.904Z,-3.20
2019-01-11T17:26:04.292Z,-3.30
2019-01-11T17:28:33.713Z,-3.30
2019-01-11T17:31:03.219Z,-3.30
2019-01-11T17:33:32.839Z,-3.20
2019-01-11T17:36:02.287Z,-3.30
2019-01-11T17:38:31.731Z,-3.20
2019-01-11T17:41:01.231Z,-3.20
2019-01-11T17:43:30.651Z,-3.30
2019-01-11T17:46:00.258Z,-3.30
2019-01-11T17:48:29.681Z,-3.30
2019-01-11T17:50:59.080Z,-3.30
2019-01-11T17:53:28.645Z,-3.30
2019-01-11T17:55:58.022Z,-3.30
2019-01-11T17:58:27.620Z,-3.20
2019-01-11T18:00:57.014Z,-3.20
2019-01-11T18:03:26.583Z,-3.30
2019-01-11T18:05:56.035Z,-3.20
2019-01-11T18:08:25.490Z,-3.20
2019-01-11T18:10:54.941Z,-3.20
2019-01-11T18:13:24.486Z,-3.10
2019-01-11T18:16:06.485Z,-3.10
2019-01-11T18:18:35.946Z,-3.10
2019-01-11T18:21:05.919Z,-3.00
2019-01-11T18:23:35.992Z,-3.10
2019-01-11T18:26:05.435Z,-3.10
2019-01-11T18:28:34.935Z,-3.10
2019-01-11T18:31:04.547Z,-3.00
2019-01-11T18:33:33.984Z,-3.00
2019-01-11T18:36:03.495Z,-3.00
2019-01-11T18:38:32.858Z,-3.00
2019-01-11T18:41:02.264Z,-3.00
2019-01-11T18:43:31.922Z,-3.00
2019-01-11T18:46:01.260Z,-2.90
2019-01-11T18:48:30.772Z,-2.90
2019-01-11T18:51:00.218Z,-2.90
2019-01-11T18:53:29.802Z,-2.90
2019-01-11T18:56:05.183Z,-2.90
2019-01-11T18:58:30.323Z,-2.80
2019-01-11T19:00:59.797Z,-2.80
2019-01-11T19:03:29.226Z,-2.80
2019-01-11T19:05:58.805Z,-2.80
2019-01-11T19:08:28.167Z,-2.80
2019-01-11T19:10:57.536Z,-2.80
2019-01-11T19:13:26.985Z,-2.70
2019-01-11T19:15:56.322Z,-2.70
2019-01-11T19:18:25.948Z,-2.70
2019-01-11T19:20:55.341Z,-2.60
2019-01-11T19:23:24.692Z,-2.60
2019-01-11T19:25:54.350Z,-2.50
2019-01-11T19:28:23.752Z,-2.50
2019-01-11T19:30:53.070Z,-2.50
2019-01-11T19:33:22.484Z,-2.40
2019-01-11T19:35:51.853Z,-2.40
2019-01-11T19:38:22.367Z,-2.40
2019-01-11T19:40:51.881Z,-2.30
2019-01-11T19:43:21.522Z,-2.30
2019-01-11T19:45:54.102Z,-2.30
2019-01-11T19:48:23.604Z,-2.30
2019-01-11T19:50:53.124Z,-2.20
2019-01-11T19:53:27.490Z,-2.20
2019-01-11T19:55:58.797Z,-2.20
2019-01-11T19:58:24.708Z,-2.10
2019-01-11T20:00:54.223Z,-2.10
2019-01-11T20:03:23.828Z,-2.00
2019-01-11T20:05:53.146Z,-2.00
2019-01-11T20:08:22.682Z,-2.00
2019-01-11T20:10:51.970Z,-2.00
2019-01-11T20:13:21.290Z,-2.00
2019-01-11T20:15:52.122Z,-2.00
2019-01-11T20:18:21.647Z,-1.90
2019-01-11T20:20:51.311Z,-1.80
2019-01-11T20:23:20.622Z,-1.90
2019-01-11T20:25:49.996Z,-1.80
2019-01-11T20:28:19.395Z,-1.80
2019-01-11T20:30:48.738Z,-1.70
2019-01-11T20:33:18.254Z,-1.80
2019-01-11T20:35:47.963Z,-1.80
2019-01-11T20:38:17.366Z,-1.70
2019-01-11T20:40:46.795Z,-1.70
2019-01-11T20:43:16.259Z,-1.70
2019-01-11T20:45:45.850Z,-1.70
2019-01-11T20:48:15.284Z,-1.70
2019-01-11T20:50:44.674Z,-1.70
2019-01-11T20:53:14.144Z,-1.70
2019-01-11T20:55:43.699Z,-1.60
2019-01-11T20:58:13.136Z,-1.60
2019-01-11T21:00:42.572Z,-1.60
2019-01-11T21:03:12.146Z,-1.60
2019-01-11T21:05:41.918Z,-1.60
2019-01-11T21:08:11.377Z,-1.50
2019-01-11T21:10:40.870Z,-1.50
2019-01-11T21:13:10.275Z,-1.40
2019-01-11T21:15:39.606Z,-1.50
2019-01-11T21:18:09.067Z,-1.50
2019-01-11T21:20:38.483Z,-1.40
2019-01-11T21:23:07.988Z,-1.40
2019-01-11T21:25:37.563Z,-1.40
2019-01-11T21:28:06.995Z,-1.30
2019-01-11T21:30:36.338Z,-1.30
2019-01-11T21:33:06.131Z,-1.30
2019-01-11T21:35:35.550Z,-1.30
2019-01-11T21:38:05.527Z,-1.20
2019-01-11T21:40:35.043Z,-1.20
2019-01-11T21:43:04.712Z,-1.10
2019-01-11T21:45:34.114Z,-1.00
2019-01-11T21:48:03.642Z,-1.00
2019-01-11T21:50:33.091Z,-1.00
2019-01-11T21:53:02.595Z,-1.00
2019-01-11T21:55:32.182Z,-1.00
2019-01-11T21:58:01.676Z,-1.00
2019-01-11T22:00:46.435Z,-0.90
2019-01-11T22:03:18.089Z,-0.90
2019-01-11T22:05:47.555Z,-0.90
2019-01-11T22:08:17.044Z,-0.90
2019-01-11T22:10:46.482Z,-0.90
2019-01-11T22:13:15.867Z,-0.80
2019-01-11T22:15:45.432Z,-0.80
2019-01-11T22:18:14.901Z,-0.80
2019-01-11T22:20:44.284Z,-0.80
2019-01-11T22:23:14.691Z,-0.80
2019-01-11T22:25:44.066Z,-0.70
2019-01-11T22:28:13.501Z,-0.70
2019-01-11T22:30:43.427Z,-0.70
2019-01-11T22:33:12.918Z,-0.60
2019-01-11T22:35:42.269Z,-0.60
2019-01-11T22:38:11.802Z,-0.60
2019-01-11T22:40:41.183Z,-0.60
2019-01-11T22:43:10.567Z,-0.60
2019-01-11T22:45:40.034Z,-0.50
2019-01-11T22:48:09.391Z,-0.50
2019-01-11T22:50:38.830Z,-0.50
2019-01-11T22:53:08.398Z,-0.40
2019-01-11T22:55:37.792Z,-0.40
2019-01-11T22:58:08.853Z,-0.40
2019-01-11T23:01:10.774Z,-0.30
2019-01-11T23:03:49.474Z,-0.30
2019-01-11T23:06:55.783Z,-0.20
2019-01-11T23:09:28.198Z,-0.20
2019-01-11T23:12:26.218Z,-0.10
2019-01-11T23:14:55.707Z,-0.10
2019-01-11T23:17:42.850Z,-0.10
2019-01-11T23:20:14.134Z,0.00
2019-01-11T23:22:43.506Z,0.10
2019-01-11T23:25:13.106Z,0.10
2019-01-11T23:27:42.551Z,0.20
2019-01-11T23:30:15.162Z,0.20
2019-01-11T23:32:44.528Z,0.20
2019-01-11T23:35:13.882Z,0.20
2019-01-11T23:37:43.321Z,0.20
2019-01-11T23:40:16.126Z,0.20
2019-01-11T23:42:45.656Z,0.20
2019-01-11T23:45:15.279Z,0.30
2019-01-11T23:47:44.707Z,0.40
2019-01-11T23:50:16.421Z,0.40
2019-01-11T23:52:46.177Z,0.50
2019-01-11T23:55:15.814Z,0.50
2019-01-11T23:57:45.329Z,0.60
